Time;durP1;ratioP1;P1;durP2;ratioP2;P2;SDS_P1;SDS_P2;PMS_P1;PMS_P2;Temp;Humidity;BMP_temperature;BMP_pressure;BME280_temperature;BME280_humidity;BME280_pressure;Samples;Min_cycle;Max_cycle;Signal;HPM_P1;HPM_P2
2022/04/05 00:01:00;;;;;;;55.05;49.25;;;;;;;0.01;100.00;101085.47;5070746;28;20561;-79
2022/04/05 00:03:27;;;;;;;59.13;52.92;;;;;;;-0.34;100.00;101076.16;5058834;28;20052;-79
2022/04/05 00:05:53;;;;;;;55.65;46.92;;;;;;;-0.43;100.00;101080.34;5062640;28;20102;-78
2022/04/05 00:08:21;;;;;;;63.20;56.80;;;;;;;-0.08;100.00;101074.81;5067812;28;20173;-79
2022/04/05 00:10:48;;;;;;;62.83;55.50;;;;;;;-0.20;100.00;101075.84;5060099;28;20049;-78
2022/04/05 00:13:15;;;;;;;57.03;50.53;;;;;;;-0.31;100.00;101079.34;5061623;28;20048;-78
2022/04/05 00:15:42;;;;;;;59.33;53.05;;;;;;;-0.06;100.00;101074.69;5071404;28;20110;-78
2022/04/05 00:18:09;;;;;;;64.82;58.22;;;;;;;-0.04;100.00;101073.59;5062413;28;20105;-79
2022/04/05 00:20:35;;;;;;;60.45;54.33;;;;;;;-0.34;100.00;101063.91;5068409;28;20527;-79
2022/04/05 00:23:02;;;;;;;57.15;51.63;;;;;;;-0.43;100.00;101069.06;5058666;28;20082;-79
2022/04/05 00:25:31;;;;;;;58.33;52.63;;;;;;;-0.33;100.00;101063.00;5068110;28;20118;-78
2022/04/05 00:27:58;;;;;;;54.28;49.20;;;;;;;-0.25;100.00;101063.16;5061017;28;20139;-79
2022/04/05 00:30:24;;;;;;;55.65;49.65;;;;;;;-0.39;100.00;101060.03;5069548;28;20044;-78
2022/04/05 00:32:51;;;;;;;66.95;61.13;;;;;;;-0.32;100.00;101058.59;5064738;28;20467;-78
2022/04/05 00:35:18;;;;;;;53.50;47.72;;;;;;;-0.75;100.00;101056.88;5060617;28;20475;-79
2022/04/05 00:37:45;;;;;;;48.88;43.35;;;;;;;-0.41;100.00;101041.91;5072017;28;20484;-79
2022/04/05 00:40:13;;;;;;;49.78;44.58;;;;;;;-0.20;100.00;101047.13;5066026;28;20504;-79
2022/04/05 00:42:41;;;;;;;51.72;46.28;;;;;;;-0.34;100.00;101043.03;5062678;28;20083;-78
2022/04/05 00:45:09;;;;;;;53.92;48.00;;;;;;;0.01;100.00;101038.47;5070196;28;20125;-78
2022/04/05 00:47:37;;;;;;;51.90;46.42;;;;;;;-0.27;100.00;101038.97;5060555;28;20064;-79
2022/04/05 00:50:06;;;;;;;50.05;44.65;;;;;;;-0.66;100.00;101032.66;5065082;28;20470;-78
2022/04/05 00:52:33;;;;;;;55.08;49.50;;;;;;;-0.15;100.00;101026.69;5054400;28;20052;-79
2022/04/05 00:55:00;;;;;;;50.72;45.40;;;;;;;-0.53;100.00;101029.88;5070588;28;20053;-78
2022/04/05 00:57:29;;;;;;;55.55;49.65;;;;;;;-0.33;100.00;101029.06;5066143;28;20560;-79
2022/04/05 01:00:04;;;;;;;64.10;57.80;;;;;;;-0.13;100.00;101029.97;5066461;28;20056;-79
2022/04/05 01:02:38;;;;;;;60.10;54.20;;;;;;;-0.30;100.00;101022.75;5059850;28;20099;-80
2022/04/05 01:05:06;;;;;;;51.33;46.03;;;;;;;0.51;100.00;101023.66;5058134;28;20048;-79
2022/04/05 01:07:34;;;;;;;50.28;44.97;;;;;;;0.34;100.00;101029.53;5057468;28;20139;-79
2022/04/05 01:10:02;;;;;;;58.63;52.45;;;;;;;0.36;100.00;101017.97;5070485;28;20049;-78
2022/04/05 01:12:28;;;;;;;60.20;54.28;;;;;;;0.03;100.00;101016.47;5068878;28;20056;-80
2022/04/05 01:14:56;;;;;;;65.05;58.65;;;;;;;0.28;100.00;101020.44;5061789;28;20095;-78
2022/04/05 01:17:23;;;;;;;62.83;56.47;;;;;;;-0.44;100.00;101012.63;5060923;28;20508;-79
2022/04/05 01:19:50;;;;;;;58.85;52.83;;;;;;;-0.42;100.00;101015.91;5068755;28;20048;-79
2022/04/05 01:22:17;;;;;;;68.70;62.28;;;;;;;-0.11;100.00;101016.81;5053644;28;20102;-80
2022/04/05 01:24:45;;;;;;;54.55;49.08;;;;;;;-0.13;100.00;101008.28;5070312;28;20102;-79
2022/04/05 01:27:17;;;;;;;62.67;56.33;;;;;;;0.06;100.00;101003.16;5070643;28;20045;-78
2022/04/05 01:29:44;;;;;;;58.78;53.03;;;;;;;-0.33;100.00;101004.75;5065048;28;20102;-79
2022/04/05 01:32:11;;;;;;;71.97;57.05;;;;;;;-0.05;100.00;101009.28;5062849;28;20123;-78
2022/04/05 01:34:39;;;;;;;59.70;53.88;;;;;;;0.30;100.00;101004.59;5067071;28;20105;-79
2022/04/05 01:37:09;;;;;;;53.88;48.67;;;;;;;-0.03;100.00;101006.53;5070873;28;20569;-79
2022/04/05 01:39:38;;;;;;;57.50;51.88;;;;;;;-0.03;100.00;101002.16;5059713;28;20049;-79
2022/04/05 01:42:08;;;;;;;62.03;56.20;;;;;;;-0.01;100.00;101002.00;5065901;28;20052;-79
2022/04/05 01:44:37;;;;;;;63.22;57.33;;;;;;;-0.20;100.00;101001.91;5067017;28;20049;-79
2022/04/05 01:47:06;;;;;;;53.60;48.22;;;;;;;-0.17;100.00;100996.44;5063982;28;20049;-78
2022/04/05 01:49:33;;;;;;;55.35;49.72;;;;;;;-0.14;100.00;100994.38;5064059;28;20432;-78
2022/04/05 01:52:00;;;;;;;54.75;49.30;;;;;;;-0.12;100.00;100992.50;5055586;28;20048;-78
2022/04/05 01:54:27;;;;;;;56.40;51.00;;;;;;;0.03;100.00;100999.97;5056377;28;20049;-78
2022/04/05 01:56:54;;;;;;;58.60;53.40;;;;;;;-0.26;100.00;100985.81;5058177;28;20059;-79
2022/04/05 01:59:24;;;;;;;63.72;57.85;;;;;;;-0.15;100.00;100986.69;5065616;28;20053;-79
2022/04/05 02:01:50;;;;;;;62.45;55.97;;;;;;;-0.07;100.00;100992.09;5066905;28;20102;-78
2022/04/05 02:04:17;;;;;;;63.03;56.42;;;;;;;-0.18;100.00;100992.16;5055259;28;20068;-79
2022/04/05 02:06:45;;;;;;;66.60;59.35;;;;;;;-0.16;100.00;100985.84;5062758;28;20496;-79
2022/04/05 02:09:14;;;;;;;58.55;52.67;;;;;;;-0.29;100.00;100987.84;5068874;28;20057;-79
2022/04/05 02:11:41;;;;;;;59.67;53.65;;;;;;;-0.62;100.00;100979.25;5068062;28;20053;-78
2022/04/05 02:14:08;;;;;;;55.75;50.45;;;;;;;-0.22;100.00;100985.56;5068156;28;20044;-78
2022/04/05 02:16:37;;;;;;;60.38;54.20;;;;;;;0.04;100.00;100989.41;5067938;28;20115;-78
2022/04/05 02:19:03;;;;;;;66.05;60.08;;;;;;;-0.20;100.00;100984.47;5065153;28;20048;-78
2022/04/05 02:21:30;;;;;;;60.63;55.30;;;;;;;0.07;100.00;100973.47;5074902;28;20564;-79
2022/04/05 02:23:57;;;;;;;60.78;55.17;;;;;;;0.30;100.00;100981.09;5070881;28;20048;-79
2022/04/05 02:26:24;;;;;;;61.58;55.80;;;;;;;0.78;100.00;100985.59;5066558;28;20103;-79
2022/04/05 02:28:51;;;;;;;68.18;62.67;;;;;;;0.69;100.00;100979.41;5062190;28;20041;-79
2022/04/05 02:31:19;;;;;;;57.60;52.38;;;;;;;0.57;100.00;100983.09;5072165;28;20110;-79
2022/04/05 02:33:47;;;;;;;62.45;56.72;;;;;;;0.80;100.00;100984.50;5071720;28;20053;-79
2022/04/05 02:36:14;;;;;;;62.70;57.40;;;;;;;0.15;100.00;100980.63;5066708;28;20118;-78
2022/04/05 02:38:40;;;;;;;69.53;63.47;;;;;;;0.16;100.00;100977.06;5060705;28;20504;-79
2022/04/05 02:41:07;;;;;;;54.92;49.63;;;;;;;-0.35;100.00;100970.91;5063512;28;20048;-79
2022/04/05 02:43:34;;;;;;;54.10;48.30;;;;;;;0.22;100.00;100979.16;5066612;28;20048;-78
2022/04/05 02:46:02;;;;;;;48.63;43.42;;;;;;;0.13;100.00;100979.94;5064726;28;20036;-79
2022/04/05 02:48:29;;;;;;;50.60;45.25;;;;;;;-0.14;100.00;100970.91;5067027;28;20509;-79
2022/04/05 02:50:58;;;;;;;52.83;47.40;;;;;;;-0.07;100.00;100974.63;5070798;28;20106;-79
2022/04/05 02:53:24;;;;;;;54.10;48.85;;;;;;;0.11;100.00;100979.25;5071735;28;20052;-79
2022/04/05 02:55:51;;;;;;;62.10;56.42;;;;;;;0.21;100.00;100977.47;5062792;28;20044;-79
2022/04/05 02:58:18;;;;;;;55.78;49.92;;;;;;;0.41;100.00;100970.53;5069653;28;20402;-78
2022/04/05 03:00:45;;;;;;;58.85;52.92;;;;;;;0.52;100.00;100967.00;5063430;28;20048;-78
2022/04/05 03:03:12;;;;;;;64.07;58.08;;;;;;;0.52;100.00;100974.84;5065218;28;20056;-78
2022/04/05 03:05:38;;;;;;;58.63;52.47;;;;;;;0.36;100.00;100970.94;5065472;28;20099;-79
2022/04/05 03:08:07;;;;;;;54.47;48.75;;;;;;;0.09;100.00;100968.94;5058341;28;20102;-78
2022/04/05 03:10:34;;;;;;;54.88;49.28;;;;;;;0.17;100.00;100968.25;5070303;28;20052;-79
2022/04/05 03:13:01;;;;;;;56.05;50.72;;;;;;;0.63;100.00;100966.88;5063908;28;20106;-79
2022/04/05 03:15:28;;;;;;;50.38;45.45;;;;;;;0.69;100.00;100963.72;5063039;28;20134;-78
2022/04/05 03:17:55;;;;;;;52.30;47.28;;;;;;;0.72;100.00;100955.59;5064183;28;20105;-79
2022/04/05 03:20:22;;;;;;;59.53;54.33;;;;;;;0.31;100.00;100957.47;5071530;28;20101;-79
2022/04/05 03:22:49;;;;;;;60.47;55.50;;;;;;;0.56;100.00;100952.69;5059767;28;20049;-79
2022/04/05 03:25:18;;;;;;;52.33;47.50;;;;;;;0.12;100.00;100953.00;5066519;28;20098;-79
2022/04/05 03:27:45;;;;;;;76.40;69.18;;;;;;;0.12;100.00;100949.53;5065894;28;20040;-79
2022/04/05 03:30:14;;;;;;;82.80;75.35;;;;;;;0.32;100.00;100943.41;5068994;28;20101;-79
2022/04/05 03:32:42;;;;;;;56.08;51.00;;;;;;;0.55;100.00;100946.66;5070367;28;20117;-79
2022/04/05 03:35:09;;;;;;;62.03;56.53;;;;;;;0.27;100.00;100940.38;5070716;28;20493;-79
2022/04/05 03:37:36;;;;;;;55.70;50.83;;;;;;;0.53;100.00;100952.97;5072027;28;20064;-78
2022/04/05 03:40:04;;;;;;;57.60;52.42;;;;;;;0.84;100.00;100945.84;5067524;28;20063;-78
2022/04/05 03:42:33;;;;;;;52.90;48.20;;;;;;;0.92;100.00;100951.22;5062868;28;20063;-78
2022/04/05 03:45:00;;;;;;;53.00;48.40;;;;;;;0.74;100.00;100953.69;5065094;28;20102;-78
2022/04/05 03:47:27;;;;;;;45.30;41.10;;;;;;;1.01;100.00;100954.81;5067604;28;20132;-79
2022/04/05 03:49:54;;;;;;;47.47;43.17;;;;;;;1.12;100.00;100952.03;5063972;28;20052;-78
2022/04/05 03:52:21;;;;;;;46.83;42.92;;;;;;;0.62;100.00;100958.22;5055941;28;20681;-78
2022/04/05 03:58:13;;;;;;;46.30;41.65;;;;;;;-0.19;100.00;100946.94;5068339;28;20094;-78
2022/04/05 04:00:39;;;;;;;46.63;42.15;;;;;;;-0.13;100.00;100950.81;5068835;28;20051;-79
2022/04/05 04:03:06;;;;;;;47.17;42.53;;;;;;;0.08;100.00;100951.59;5065824;28;20091;-78
2022/04/05 04:05:33;;;;;;;47.20;42.50;;;;;;;0.23;100.00;100949.44;5063146;28;20044;-78
2022/04/05 04:08:00;;;;;;;55.35;49.35;;;;;;;0.49;100.00;100952.41;5068265;28;20102;-79
2022/04/05 04:10:26;;;;;;;52.70;47.65;;;;;;;0.33;100.00;100957.31;5067557;28;20041;-79
2022/04/05 04:12:53;;;;;;;53.03;48.08;;;;;;;0.13;100.00;100970.31;5064020;28;20048;-79
2022/04/05 04:15:22;;;;;;;53.25;48.05;;;;;;;0.26;100.00;100961.44;5062675;28;20053;-79
2022/04/05 04:17:48;;;;;;;52.50;47.58;;;;;;;0.46;100.00;100965.75;5059161;28;20048;-79
2022/04/05 04:20:15;;;;;;;53.05;48.28;;;;;;;0.80;100.00;100970.63;5059891;28;20048;-80
2022/04/05 04:22:42;;;;;;;48.45;44.10;;;;;;;1.03;100.00;100961.56;5061913;28;20475;-79
2022/04/05 04:25:10;;;;;;;43.50;39.20;;;;;;;0.87;100.00;100964.69;5061576;28;20094;-78
2022/04/05 04:27:36;;;;;;;48.88;43.97;;;;;;;0.69;100.00;100966.31;5058961;28;20483;-79
2022/04/05 04:30:04;;;;;;;51.13;46.35;;;;;;;0.44;100.00;100962.44;5062980;28;20561;-78
2022/04/05 04:32:32;;;;;;;51.85;45.97;;;;;;;0.75;100.00;100975.41;5070440;28;20056;-78
2022/04/05 04:35:00;;;;;;;43.42;38.97;;;;;;;0.71;100.00;100964.41;5064351;28;20052;-77
2022/04/05 04:37:26;;;;;;;45.92;41.30;;;;;;;0.99;100.00;100964.56;5053996;28;20106;-79
2022/04/05 04:39:53;;;;;;;46.20;41.50;;;;;;;1.25;100.00;100964.84;5064873;28;20082;-79
2022/04/05 04:42:20;;;;;;;53.50;44.15;;;;;;;1.07;100.00;100973.38;5064263;28;20498;-79
2022/04/05 04:44:47;;;;;;;87.80;60.33;;;;;;;1.12;100.00;100967.72;5060285;28;20060;-79
2022/04/05 04:47:13;;;;;;;65.10;56.97;;;;;;;1.31;100.00;100964.28;5061273;28;20049;-79
2022/04/05 04:49:42;;;;;;;56.90;49.58;;;;;;;1.51;100.00;100965.06;5065397;28;20110;-79
2022/04/05 04:52:09;;;;;;;51.42;45.03;;;;;;;1.44;100.00;100967.44;5060611;28;20105;-78
2022/04/05 04:54:35;;;;;;;59.00;51.58;;;;;;;1.65;100.00;100966.44;5068532;28;20049;-78
2022/04/05 04:57:02;;;;;;;49.83;44.38;;;;;;;1.86;100.00;100959.19;5065463;28;20044;-79
2022/04/05 04:59:30;;;;;;;48.45;43.42;;;;;;;1.98;100.00;100970.31;5059312;28;20045;-79
2022/04/05 05:01:56;;;;;;;46.03;41.30;;;;;;;2.15;100.00;100963.47;5066392;28;20105;-79
2022/04/05 05:04:24;;;;;;;46.83;42.00;;;;;;;1.99;100.00;100959.69;5068493;28;20109;-78
2022/04/05 05:06:53;;;;;;;45.30;41.00;;;;;;;2.27;100.00;100962.34;5067144;28;20045;-79
2022/04/05 05:09:20;;;;;;;51.45;46.58;;;;;;;2.32;100.00;100967.13;5065983;28;20576;-78
2022/04/05 05:11:47;;;;;;;52.33;47.65;;;;;;;2.57;100.00;100970.84;5062490;28;20103;-79
2022/04/05 05:14:13;;;;;;;45.75;40.95;;;;;;;2.65;100.00;100970.94;5059579;28;20059;-78
2022/04/05 05:16:40;;;;;;;45.45;41.40;;;;;;;2.82;100.00;100969.34;5061656;28;20052;-79
2022/04/05 05:19:07;;;;;;;53.85;49.10;;;;;;;2.93;100.00;100964.66;5066290;28;20110;-78
2022/04/05 05:21:34;;;;;;;47.53;43.28;;;;;;;3.08;100.00;100975.47;5053231;28;20102;-79
2022/04/05 05:24:02;;;;;;;44.50;40.10;;;;;;;3.25;100.00;100967.75;5056970;28;20109;-79
2022/04/05 05:26:28;;;;;;;46.17;42.05;;;;;;;3.29;100.00;100966.44;5057393;28;20114;-79
2022/04/05 05:28:55;;;;;;;53.75;49.40;;;;;;;3.59;100.00;100968.63;5061526;28;20585;-79
2022/04/05 05:31:22;;;;;;;50.58;46.30;;;;;;;3.52;100.00;100967.63;5065826;28;20110;-79
2022/04/05 05:33:50;;;;;;;48.75;44.25;;;;;;;3.65;100.00;100965.38;5055044;28;20045;-79
2022/04/05 05:36:16;;;;;;;46.65;40.70;;;;;;;3.85;100.00;100968.66;5069800;28;20565;-79
2022/04/05 05:38:44;;;;;;;43.33;39.05;;;;;;;4.13;100.00;100966.63;5068825;28;20110;-79
2022/04/05 05:41:12;;;;;;;41.55;37.15;;;;;;;4.10;100.00;100968.75;5063726;28;20055;-79
2022/04/05 05:43:40;;;;;;;42.97;39.10;;;;;;;4.05;100.00;100963.97;5066850;28;20113;-79
2022/04/05 05:46:07;;;;;;;45.30;41.00;;;;;;;4.46;100.00;100963.31;5062404;28;20067;-79
2022/04/05 05:48:34;;;;;;;43.78;39.92;;;;;;;4.52;100.00;100957.41;5069030;28;20052;-79
2022/04/05 05:51:02;;;;;;;44.20;40.45;;;;;;;4.81;100.00;100963.09;5074014;28;20102;-79
2022/04/05 05:53:29;;;;;;;46.67;43.10;;;;;;;4.79;100.00;100958.97;5069210;28;20122;-79
2022/04/05 05:55:56;;;;;;;44.40;40.53;;;;;;;4.99;100.00;100962.09;5069179;28;20401;-79
2022/04/05 05:58:24;;;;;;;46.83;43.03;;;;;;;4.99;100.00;100962.94;5066597;28;20045;-79
2022/04/05 06:00:51;;;;;;;45.92;42.25;;;;;;;5.45;100.00;100960.63;5066161;28;20087;-79
2022/04/05 06:03:18;;;;;;;42.00;38.45;;;;;;;5.71;100.00;100952.50;5066188;28;20052;-79
2022/04/05 06:05:46;;;;;;;41.65;38.25;;;;;;;5.78;100.00;100954.47;5066471;28;20566;-79
2022/04/05 06:08:13;;;;;;;43.63;39.72;;;;;;;5.85;100.00;100953.63;5061120;28;20106;-79
2022/04/05 06:10:40;;;;;;;43.47;39.80;;;;;;;6.11;100.00;100952.56;5072050;28;20048;-79
2022/04/05 06:13:08;;;;;;;44.65;40.83;;;;;;;6.26;100.00;100950.88;5063310;28;20071;-79
2022/04/05 06:15:37;;;;;;;44.65;40.85;;;;;;;6.25;100.00;100951.88;5073542;28;20041;-79
2022/04/05 06:18:05;;;;;;;45.28;41.38;;;;;;;6.41;100.00;100949.16;5072372;28;20052;-79
2022/04/05 06:20:32;;;;;;;42.88;39.35;;;;;;;6.89;100.00;100951.66;5067318;28;20071;-80
2022/04/05 06:23:01;;;;;;;42.17;38.67;;;;;;;7.08;100.00;100945.94;5071907;28;20109;-79
2022/04/05 06:25:30;;;;;;;41.45;38.20;;;;;;;7.14;100.00;100948.84;5056569;28;20606;-79
2022/04/05 06:27:58;;;;;;;46.67;42.90;;;;;;;7.83;100.00;100941.56;5065208;28;20049;-79
2022/04/05 06:30:25;;;;;;;44.05;40.55;;;;;;;7.91;100.00;100935.38;5065957;28;20490;-79
2022/04/05 06:33:05;;;;;;;44.78;41.15;;;;;;;8.33;100.00;100944.47;5063309;28;20072;-79
2022/04/05 06:35:31;;;;;;;42.13;38.60;;;;;;;8.03;100.00;100937.38;5060560;28;20479;-79
2022/04/05 06:37:58;;;;;;;44.08;40.67;;;;;;;8.39;100.00;100936.63;5071544;28;20045;-79
2022/04/05 06:40:25;;;;;;;44.00;40.70;;;;;;;8.74;100.00;100941.28;5071669;28;20041;-80
2022/04/05 06:42:51;;;;;;;44.83;41.25;;;;;;;8.91;100.00;100942.66;5064571;28;20570;-79
2022/04/05 06:45:19;;;;;;;43.90;40.25;;;;;;;8.72;100.00;100938.81;5063475;28;20516;-79
2022/04/05 06:47:47;;;;;;;45.10;41.65;;;;;;;9.07;100.00;100937.09;5063248;28;20496;-79
2022/04/05 06:50:20;;;;;;;43.05;39.83;;;;;;;9.07;100.00;100931.00;5062844;28;20128;-80
2022/04/05 06:52:47;;;;;;;41.22;38.17;;;;;;;9.65;100.00;100931.63;5071385;28;20501;-80
2022/04/05 06:55:14;;;;;;;40.72;37.63;;;;;;;9.76;100.00;100932.94;5063724;28;20471;-79
2022/04/05 06:57:41;;;;;;;40.47;37.58;;;;;;;10.28;100.00;100919.09;5060024;28;20113;-79
2022/04/05 07:00:10;;;;;;;43.25;39.92;;;;;;;10.39;100.00;100922.22;5063119;28;20083;-80
2022/04/05 07:02:37;;;;;;;39.80;37.00;;;;;;;10.28;100.00;100913.81;5062276;28;20504;-80
2022/04/05 07:05:06;;;;;;;39.28;36.40;;;;;;;10.62;92.78;100913.91;5063489;28;20049;-80
2022/04/05 07:07:34;;;;;;;39.92;37.22;;;;;;;10.72;88.55;100912.50;5072034;28;20114;-80
2022/04/05 07:10:01;;;;;;;41.42;38.60;;;;;;;10.80;88.16;100906.16;5064120;28;20516;-80
2022/04/05 07:12:28;;;;;;;41.42;38.55;;;;;;;10.95;82.32;100905.97;5063452;28;20106;-79
2022/04/05 07:14:55;;;;;;;41.55;38.55;;;;;;;10.91;81.30;100908.22;5064307;28;20052;-80
2022/04/05 07:17:21;;;;;;;40.78;37.97;;;;;;;10.92;84.44;100911.69;5067377;28;20059;-81
2022/04/05 07:19:48;;;;;;;41.08;38.30;;;;;;;11.33;84.25;100906.19;5060358;28;20060;-79
2022/04/05 07:22:15;;;;;;;41.17;38.58;;;;;;;10.99;76.52;100912.53;5055254;28;20489;-80
2022/04/05 07:24:43;;;;;;;41.45;38.95;;;;;;;10.93;78.79;100908.03;5067106;28;20095;-80
2022/04/05 07:27:10;;;;;;;41.72;38.85;;;;;;;11.07;75.04;100906.19;5062982;28;20052;-80
2022/04/05 07:29:37;;;;;;;42.22;39.15;;;;;;;11.24;73.48;100905.56;5066565;28;20048;-79
2022/04/05 07:32:04;;;;;;;42.75;39.83;;;;;;;11.63;75.03;100913.72;5059300;28;20513;-80
2022/04/05 07:34:31;;;;;;;42.00;39.13;;;;;;;11.40;75.28;100909.63;5066722;28;20098;-80
2022/04/05 07:36:58;;;;;;;39.15;36.65;;;;;;;12.05;77.40;100908.91;5059623;28;20048;-80
2022/04/05 07:39:24;;;;;;;40.63;38.08;;;;;;;11.93;74.29;100910.59;5065092;28;20040;-80
2022/04/05 07:41:53;;;;;;;43.53;40.70;;;;;;;12.05;75.09;100916.91;5059195;28;20472;-80
2022/04/05 07:44:20;;;;;;;44.53;41.83;;;;;;;12.28;75.36;100911.06;5066113;28;20475;-80
2022/04/05 07:46:47;;;;;;;45.13;42.22;;;;;;;12.07;75.52;100902.34;5063221;28;20048;-80
2022/04/05 07:49:14;;;;;;;40.38;37.45;;;;;;;11.72;76.60;100903.66;5063813;28;20094;-80
2022/04/05 07:51:41;;;;;;;41.42;38.65;;;;;;;12.24;77.67;100915.19;5067105;28;20071;-80
2022/04/05 07:54:08;;;;;;;41.40;38.83;;;;;;;13.20;78.30;100903.50;5062928;28;20052;-80
2022/04/05 07:56:35;;;;;;;41.60;39.15;;;;;;;12.73;71.59;100908.34;5059290;28;20044;-80
2022/04/05 07:59:03;;;;;;;41.80;39.13;;;;;;;12.53;76.13;100908.50;5063205;28;20049;-79
2022/04/05 08:01:30;;;;;;;42.47;39.85;;;;;;;12.60;74.84;100903.91;5068810;28;20048;-79
2022/04/05 08:03:57;;;;;;;42.67;39.72;;;;;;;12.40;72.90;100897.88;5062364;28;20044;-79
2022/04/05 08:06:25;;;;;;;40.45;37.92;;;;;;;12.53;74.92;100913.81;5063221;28;20483;-79
2022/04/05 08:08:51;;;;;;;39.53;37.13;;;;;;;12.63;71.59;100903.50;5067598;28;20049;-79
2022/04/05 08:11:18;;;;;;;39.50;37.20;;;;;;;12.41;69.41;100891.56;5062307;28;20177;-81
2022/04/05 08:13:45;;;;;;;41.35;38.85;;;;;;;12.69;66.14;100891.97;5062801;28;20086;-80
2022/04/05 08:16:13;;;;;;;42.17;39.20;;;;;;;12.53;64.90;100895.16;5064285;28;20048;-79
2022/04/05 08:18:40;;;;;;;41.10;38.72;;;;;;;12.89;64.66;100891.84;5060105;28;20123;-80
2022/04/05 08:21:07;;;;;;;39.90;37.30;;;;;;;13.24;65.97;100894.00;5061768;28;20052;-80
2022/04/05 08:23:34;;;;;;;38.95;36.75;;;;;;;13.09;61.85;100883.66;5058032;28;20102;-80
2022/04/05 08:26:01;;;;;;;39.03;36.55;;;;;;;12.69;62.39;100881.31;5062867;28;20097;-79
2022/04/05 08:28:27;;;;;;;38.15;36.05;;;;;;;12.75;58.86;100883.13;5062685;28;20044;-79
2022/04/05 08:30:54;;;;;;;40.72;38.40;;;;;;;12.87;56.89;100879.75;5061703;28;20094;-80
2022/04/05 08:33:22;;;;;;;36.78;34.58;;;;;;;13.11;56.89;100875.47;5062198;28;20409;-79
2022/04/05 08:35:49;;;;;;;37.92;35.55;;;;;;;12.79;54.15;100876.31;5070905;28;20048;-80
2022/04/05 08:38:16;;;;;;;42.58;40.08;;;;;;;12.58;57.25;100874.00;5069780;28;20040;-80
2022/04/05 08:40:43;;;;;;;38.85;36.83;;;;;;;12.90;63.66;100871.34;5060570;28;20115;-79
2022/04/05 08:43:10;;;;;;;40.55;38.05;;;;;;;13.23;60.31;100863.84;5061502;28;20463;-79
2022/04/05 08:45:37;;;;;;;40.28;38.05;;;;;;;13.48;61.27;100853.16;5062416;28;20052;-79
2022/04/05 08:48:09;;;;;;;40.85;38.33;;;;;;;14.22;57.47;100858.47;5061607;28;20048;-80
2022/04/05 08:50:37;;;;;;;42.45;39.95;;;;;;;14.41;54.20;100849.34;5065917;28;20049;-79
2022/04/05 08:53:04;;;;;;;41.45;39.25;;;;;;;13.87;56.38;100847.59;5059659;28;20048;-79
2022/04/05 08:55:32;;;;;;;40.80;38.50;;;;;;;14.30;51.93;100842.09;5055828;28;20509;-79
2022/04/05 08:57:58;;;;;;;41.65;39.15;;;;;;;14.07;51.34;100839.31;5060496;28;20408;-78
2022/04/05 09:00:25;;;;;;;39.95;37.55;;;;;;;13.13;52.84;100836.03;5063363;28;20048;-80
2022/04/05 09:02:59;;;;;;;40.35;38.03;;;;;;;13.93;54.50;100834.16;5060963;28;20057;-79
2022/04/05 09:05:30;;;;;;;37.60;35.40;;;;;;;14.69;53.54;100828.41;5059847;28;20053;-79
2022/04/05 09:08:18;;;;;;;38.58;36.40;;;;;;;15.12;50.03;100833.41;5067086;28;20045;-80
2022/04/05 09:10:47;;;;;;;39.20;36.80;;;;;;;14.54;50.01;100831.50;5063030;28;20177;-79
2022/04/05 09:13:18;;;;;;;38.45;36.30;;;;;;;14.10;55.54;100828.19;5060923;28;20072;-79
2022/04/05 09:15:50;;;;;;;39.10;36.50;;;;;;;13.58;50.97;100825.16;5059913;28;20052;-79
2022/04/05 09:18:28;;;;;;;38.83;36.50;;;;;;;13.67;55.84;100832.63;5069251;28;20041;-79
2022/04/05 09:20:55;;;;;;;39.53;37.40;;;;;;;14.71;50.47;100818.28;5063070;28;20040;-80
2022/04/05 09:23:28;;;;;;;37.38;35.17;;;;;;;13.80;51.11;100818.31;5066341;28;20155;-80
2022/04/05 09:26:00;;;;;;;38.90;36.60;;;;;;;15.21;45.09;100815.16;5068526;28;20044;-80
2022/04/05 09:28:35;;;;;;;37.63;35.23;;;;;;;14.77;45.65;100810.16;5070390;28;20037;-80
2022/04/05 09:31:04;;;;;;;41.70;39.40;;;;;;;14.38;49.70;100814.25;5071863;28;20311;-80
2022/04/05 09:33:32;;;;;;;40.25;37.95;;;;;;;14.07;46.52;100805.44;5070688;28;20053;-79
2022/04/05 09:36:07;;;;;;;40.20;37.90;;;;;;;13.86;53.48;100804.06;5066582;28;20044;-80
2022/04/05 09:38:36;;;;;;;41.78;39.58;;;;;;;13.94;47.42;100803.75;5071370;28;20473;-80
2022/04/05 09:41:19;;;;;;;42.00;39.65;;;;;;;13.83;48.08;100801.00;5064172;28;20071;-79
2022/04/05 09:43:55;;;;;;;47.13;44.65;;;;;;;14.65;49.09;100796.78;5069895;28;20049;-79
2022/04/05 09:46:23;;;;;;;42.88;40.60;;;;;;;14.10;49.08;100786.28;5069855;28;20110;-79
2022/04/05 09:49:02;;;;;;;41.78;39.50;;;;;;;14.24;50.30;100783.41;5074039;28;20086;-79
2022/04/05 09:51:29;;;;;;;39.22;36.92;;;;;;;14.21;53.96;100785.50;5066914;28;20052;-79
2022/04/05 09:53:57;;;;;;;40.00;37.80;;;;;;;13.72;47.31;100781.25;5069048;28;20102;-81
2022/04/05 09:56:27;;;;;;;40.15;37.95;;;;;;;14.55;47.83;100777.00;5067833;28;20045;-78
2022/04/05 09:58:55;;;;;;;40.75;38.50;;;;;;;15.65;45.55;100776.19;5069025;28;20061;-79
2022/04/05 10:01:28;;;;;;;39.83;37.40;;;;;;;14.97;46.02;100777.72;5065287;28;20049;-80
2022/04/05 10:04:00;;;;;;;39.25;37.05;;;;;;;13.52;54.83;100777.00;5072137;28;20045;-79
2022/04/05 10:06:28;;;;;;;40.10;37.75;;;;;;;13.07;58.85;100763.06;5064371;28;20475;-79
2022/04/05 10:08:56;;;;;;;42.30;40.00;;;;;;;14.02;50.39;100754.56;5060051;28;20504;-78
2022/04/05 10:11:26;;;;;;;39.63;37.42;;;;;;;14.14;52.94;100754.59;5067550;28;20044;-79
2022/04/05 10:13:53;;;;;;;42.47;40.33;;;;;;;16.39;44.62;100764.69;5067846;28;20148;-78
2022/04/05 10:16:23;;;;;;;38.45;36.40;;;;;;;15.83;51.85;100756.50;5070760;28;20401;-79
2022/04/05 10:18:51;;;;;;;41.35;38.95;;;;;;;16.50;46.71;100747.72;5070336;28;20048;-80
2022/04/05 10:21:21;;;;;;;44.45;41.95;;;;;;;14.56;43.58;100750.06;5073902;28;20117;-79
2022/04/05 10:23:48;;;;;;;39.25;36.85;;;;;;;13.86;44.73;100736.53;5069147;28;20053;-79
2022/04/05 10:26:19;;;;;;;45.88;43.40;;;;;;;14.77;48.55;100737.97;5066314;28;20048;-79
2022/04/05 10:28:49;;;;;;;43.05;40.63;;;;;;;14.01;50.47;100738.75;5068214;28;20130;-79
2022/04/05 10:31:20;;;;;;;42.65;40.35;;;;;;;13.54;55.76;100730.56;5069472;28;20534;-79
2022/04/05 10:34:00;;;;;;;46.60;44.05;;;;;;;16.13;48.43;100732.13;5072733;28;20040;-80
2022/04/05 10:36:27;;;;;;;52.90;49.83;;;;;;;15.30;45.28;100728.13;5070606;28;20044;-79
2022/04/05 10:39:22;;;;;;;53.13;50.05;;;;;;;15.90;47.50;100726.88;5066746;28;20414;-79
2022/04/05 10:42:20;;;;;;;48.50;45.80;;;;;;;14.55;46.58;100721.69;5052569;28;20596;-79
2022/04/05 10:44:53;;;;;;;46.95;44.25;;;;;;;14.78;48.18;100712.84;5062942;28;20496;-79
2022/04/05 10:47:20;;;;;;;37.85;35.65;;;;;;;15.23;46.83;100712.19;5066663;28;20040;-79
2022/04/05 10:49:49;;;;;;;38.78;36.67;;;;;;;14.56;48.28;100715.31;5068566;28;20478;-79
2022/04/05 10:52:19;;;;;;;37.85;35.75;;;;;;;17.36;45.41;100704.38;5072042;28;20568;-79
2022/04/05 10:54:49;;;;;;;37.83;35.20;;;;;;;15.17;49.78;100702.44;5059395;28;20106;-79
2022/04/05 10:57:26;;;;;;;39.03;36.80;;;;;;;15.97;46.05;100695.38;5062677;28;20080;-80
2022/04/05 11:00:01;;;;;;;41.70;39.10;;;;;;;17.12;44.79;100683.16;5073352;28;20478;-79
2022/04/05 11:02:35;;;;;;;40.33;38.10;;;;;;;15.12;50.13;100680.94;5069422;28;20431;-80
2022/04/05 11:05:04;;;;;;;39.42;37.38;;;;;;;14.11;51.85;100675.75;5066663;28;20141;-79
2022/04/05 11:08:04;;;;;;;38.05;35.67;;;;;;;13.86;45.68;100675.13;5071512;28;20045;-78
2022/04/05 11:10:45;;;;;;;38.88;36.58;;;;;;;16.88;42.59;100665.69;5061571;28;20474;-80
2022/04/05 11:13:18;;;;;;;36.42;34.42;;;;;;;15.40;47.20;100671.31;5071237;28;20063;-79
2022/04/05 11:15:49;;;;;;;37.72;35.53;;;;;;;15.75;44.59;100666.63;5063322;28;20056;-79